Time;durP1;ratioP1;P1;durP2;ratioP2;P2;SDS_P1;SDS_P2;PMS_P1;PMS_P2;Temp;Humidity;BMP_temperature;BMP_pressure;BME280_temperature;BME280_humidity;BME280_pressure;Samples;Min_cycle;Max_cycle;Signal;HPM_P1;HPM_P2
2023/06/27 00:00:08;;;;;;;8.70;6.70;;;;;;;18.61;99.26;94718.13;5026880;28;20180;-88
2023/06/27 00:02:34;;;;;;;11.45;6.70;;;;;;;18.68;99.29;94740.03;5010208;28;20176;-88
2023/06/27 00:05:00;;;;;;;13.20;7.60;;;;;;;18.47;99.07;94713.28;5010923;28;20193;-88
2023/06/27 00:07:28;;;;;;;9.85;6.68;;;;;;;18.70;99.43;94756.53;5012299;28;20156;-88
2023/06/27 00:09:55;;;;;;;13.02;6.93;;;;;;;18.59;99.42;94739.75;5010985;28;20259;-87
2023/06/27 00:12:20;;;;;;;9.25;6.40;;;;;;;18.43;98.85;94717.53;5003717;28;20243;-88
2023/06/27 00:14:46;;;;;;;16.27;6.95;;;;;;;18.61;99.49;94750.94;5011709;28;20176;-88
2023/06/27 00:17:12;;;;;;;9.73;7.18;;;;;;;18.20;99.64;94680.69;5011961;28;20168;-87
2023/06/27 00:19:40;;;;;;;9.20;6.78;;;;;;;18.12;99.58;94659.09;5010769;28;20180;-88
2023/06/27 00:22:09;;;;;;;8.23;6.35;;;;;;;18.63;98.75;94748.81;5011975;28;20569;-88
2023/06/27 00:24:38;;;;;;;9.32;6.22;;;;;;;18.62;98.91;94746.41;5012129;28;20175;-88
2023/06/27 00:27:05;;;;;;;9.43;6.78;;;;;;;18.27;98.59;94691.91;5012418;28;20218;-87
2023/06/27 00:29:32;;;;;;;11.35;6.60;;;;;;;18.24;98.14;94700.44;5012070;28;20227;-88
2023/06/27 00:31:57;;;;;;;8.38;6.57;;;;;;;18.33;98.36;94714.06;5010768;28;20222;-87
2023/06/27 00:34:23;;;;;;;11.20;6.35;;;;;;;18.47;98.69;94744.47;5010866;28;20169;-87
2023/06/27 00:36:48;;;;;;;9.77;6.95;;;;;;;18.09;99.06;94705.69;5012043;28;20248;-87
2023/06/27 00:39:13;;;;;;;10.60;6.30;;;;;;;17.88;99.69;94675.53;5012287;28;20168;-87
2023/06/27 00:41:39;;;;;;;8.18;6.60;;;;;;;18.15;99.82;94720.66;5010426;28;20176;-87
2023/06/27 00:44:07;;;;;;;7.97;6.63;;;;;;;17.97;99.93;94694.47;5011862;28;20172;-87
2023/06/27 00:46:37;;;;;;;10.93;5.95;;;;;;;18.08;99.97;94712.06;5012187;28;20193;-88
2023/06/27 00:49:05;;;;;;;10.32;6.68;;;;;;;18.34;99.39;94750.28;5010549;28;20180;-87
2023/06/27 00:51:31;;;;;;;12.60;6.82;;;;;;;18.16;98.70;94698.28;5011788;28;20179;-87
2023/06/27 00:53:57;;;;;;;10.05;5.43;;;;;;;17.94;98.69;94671.81;5010273;28;20184;-87
2023/06/27 00:56:24;;;;;;;8.95;6.78;;;;;;;18.04;98.24;94692.38;5010296;28;20183;-87
2023/06/27 00:58:50;;;;;;;7.90;5.68;;;;;;;17.94;98.26;94676.34;5009840;28;20212;-88
2023/06/27 01:01:16;;;;;;;10.38;6.10;;;;;;;18.13;98.09;94706.78;5027025;28;20186;-87
2023/06/27 01:03:42;;;;;;;10.77;6.38;;;;;;;17.62;97.90;94632.00;5011933;28;20156;-87
2023/06/27 01:06:30;;;;;;;10.43;6.40;;;;;;;18.25;97.85;94739.31;5011926;28;20184;-87
2023/06/27 01:09:28;;;;;;;8.18;5.80;;;;;;;18.01;97.46;94722.19;5027117;28;20181;-88
2023/06/27 01:12:00;;;;;;;7.38;6.00;;;;;;;17.90;98.14;94707.22;4991414;28;20196;-87
2023/06/27 01:14:30;;;;;;;10.93;6.63;;;;;;;17.98;98.60;94720.06;5013430;28;20175;-87
2023/06/27 01:16:57;;;;;;;10.25;6.47;;;;;;;18.03;98.29;94733.38;5015305;28;20181;-88
2023/06/27 01:19:25;;;;;;;7.45;5.68;;;;;;;17.65;98.19;94679.41;5015678;28;20192;-88
2023/06/27 01:22:00;;;;;;;10.82;5.40;;;;;;;17.63;98.54;94678.88;5014149;28;20567;-88
2023/06/27 01:24:26;;;;;;;8.13;6.32;;;;;;;17.53;98.13;94662.03;5014043;28;20164;-88
2023/06/27 01:26:52;;;;;;;6.95;4.88;;;;;;;17.81;98.23;94706.94;5013748;28;20204;-88
2023/06/27 01:29:17;;;;;;;11.55;5.85;;;;;;;17.87;97.65;94715.72;5013842;28;20183;-88
2023/06/27 01:31:49;;;;;;;11.40;6.05;;;;;;;17.66;97.55;94693.50;5014826;28;20176;-87
2023/06/27 01:34:57;;;;;;;11.52;6.05;;;;;;;17.74;97.79;94719.66;5015653;28;20244;-87
2023/06/27 01:37:30;;;;;;;11.98;5.32;;;;;;;17.69;98.15;94717.78;5013402;28;20176;-87
2023/06/27 01:40:10;;;;;;;14.45;6.70;;;;;;;17.75;98.08;94737.22;5013287;28;20212;-87
2023/06/27 01:42:40;;;;;;;7.80;4.82;;;;;;;17.49;98.59;94695.50;5013221;28;20176;-88
2023/06/27 01:45:07;;;;;;;7.30;5.15;;;;;;;17.49;98.07;94687.53;5013443;28;20196;-87
2023/06/27 01:47:36;;;;;;;10.77;5.68;;;;;;;17.61;97.91;94704.91;5013211;28;20271;-88
2023/06/27 01:50:02;;;;;;;9.63;6.35;;;;;;;17.52;98.22;94697.66;5029991;28;20175;-87
2023/06/27 01:52:28;;;;;;;8.55;5.47;;;;;;;17.47;98.11;94687.78;5014732;28;20176;-87
2023/06/27 01:54:53;;;;;;;8.20;5.30;;;;;;;17.44;97.69;94674.22;5015026;28;20168;-87
2023/06/27 01:57:19;;;;;;;9.15;4.70;;;;;;;17.34;97.69;94666.97;5014507;28;20171;-86
2023/06/27 01:59:44;;;;;;;7.05;4.80;;;;;;;17.45;97.66;94687.25;5014979;28;20543;-86
2023/06/27 02:02:10;;;;;;;7.25;4.90;;;;;;;17.62;97.40;94706.56;5013308;28;20172;-86
2023/06/27 02:04:35;;;;;;;8.50;4.85;;;;;;;17.40;97.04;94676.56;5015068;28;20169;-86
2023/06/27 02:07:01;;;;;;;5.43;4.60;;;;;;;17.27;97.16;94667.19;5013156;28;20275;-86
2023/06/27 02:09:26;;;;;;;8.10;5.38;;;;;;;17.62;97.02;94732.38;5014744;28;20630;-86
2023/06/27 02:11:52;;;;;;;10.60;5.10;;;;;;;17.25;97.30;94685.28;5014371;28;20188;-86
2023/06/27 02:14:17;;;;;;;10.32;5.30;;;;;;;17.25;97.33;94697.78;5014335;28;20157;-86
2023/06/27 02:16:42;;;;;;;8.40;5.97;;;;;;;17.20;97.64;94687.09;5014197;28;20161;-86
2023/06/27 02:19:08;;;;;;;10.82;5.00;;;;;;;17.09;97.81;94674.78;5012860;28;20187;-86
2023/06/27 02:21:33;;;;;;;11.70;5.30;;;;;;;17.48;98.17;94729.31;5014099;28;20164;-86
2023/06/27 02:23:59;;;;;;;9.98;5.55;;;;;;;17.09;98.08;94674.78;5012803;28;20176;-85
2023/06/27 02:26:24;;;;;;;9.40;5.30;;;;;;;17.27;97.82;94707.09;5012116;28;20228;-85
2023/06/27 02:28:50;;;;;;;7.35;5.60;;;;;;;17.24;97.59;94710.28;5012765;28;20227;-85
2023/06/27 02:31:15;;;;;;;10.65;5.47;;;;;;;17.41;97.54;94734.06;5014041;28;20203;-86
2023/06/27 02:33:41;;;;;;;10.05;5.10;;;;;;;17.01;97.79;94680.56;5014264;28;20176;-86
2023/06/27 02:36:06;;;;;;;6.75;5.10;;;;;;;17.14;97.64;94698.75;5014119;28;20161;-86
2023/06/27 02:38:32;;;;;;;7.15;5.63;;;;;;;16.95;97.64;94671.78;5014039;28;20168;-86
2023/06/27 02:40:57;;;;;;;8.70;6.00;;;;;;;17.10;97.84;94695.00;5013787;28;20172;-86
2023/06/27 02:43:23;;;;;;;10.18;6.50;;;;;;;17.21;97.69;94710.00;5012537;28;20596;-86
2023/06/27 02:45:48;;;;;;;5.93;4.57;;;;;;;17.19;97.31;94717.41;5013922;28;20210;-86
2023/06/27 02:48:14;;;;;;;7.63;5.60;;;;;;;16.94;97.40;94684.25;5013744;28;20168;-86
2023/06/27 02:50:39;;;;;;;7.18;4.88;;;;;;;16.81;97.70;94662.59;5013830;28;20165;-86
2023/06/27 02:53:05;;;;;;;8.02;5.63;;;;;;;16.90;97.99;94680.50;5012342;28;20172;-86
2023/06/27 02:55:30;;;;;;;11.25;5.10;;;;;;;16.90;97.91;94683.16;5012310;28;20164;-86
2023/06/27 02:57:55;;;;;;;9.50;5.95;;;;;;;17.02;97.68;94700.78;5013440;28;20311;-86
2023/06/27 03:00:21;;;;;;;14.82;5.57;;;;;;;16.87;97.78;94677.53;5013809;28;20165;-86
2023/06/27 03:02:46;;;;;;;8.55;4.90;;;;;;;16.94;98.04;94688.78;5013883;28;20169;-86
2023/06/27 03:05:11;;;;;;;11.98;5.43;;;;;;;17.03;97.65;94699.75;5013161;28;20196;-86
2023/06/27 03:07:37;;;;;;;11.10;5.88;;;;;;;17.13;97.54;94713.91;5011431;28;20184;-86
2023/06/27 03:10:03;;;;;;;12.82;6.28;;;;;;;17.28;97.52;94745.16;5012784;28;20192;-86
2023/06/27 03:12:28;;;;;;;15.02;6.38;;;;;;;17.20;98.07;94727.00;5011484;28;20187;-86
2023/06/27 03:14:53;;;;;;;9.55;5.65;;;;;;;16.90;97.73;94683.16;5013124;28;20172;-86
2023/06/27 03:17:19;;;;;;;12.50;5.93;;;;;;;17.05;97.78;94701.06;5013346;28;20539;-86
2023/06/27 03:19:44;;;;;;;11.00;5.65;;;;;;;17.01;97.71;94684.03;5013157;28;20171;-86
2023/06/27 03:22:10;;;;;;;12.13;5.63;;;;;;;17.16;97.22;94717.91;5011818;28;20626;-86
2023/06/27 03:28:04;;;;;;;17.17;5.50;;;;;;;17.26;98.23;94704.69;5013379;28;20539;-82
2023/06/27 03:30:29;;;;;;;16.83;6.50;;;;;;;17.43;98.26;94723.16;5013216;28;20952;-82
2023/06/27 03:32:55;;;;;;;10.23;5.45;;;;;;;17.27;98.03;94688.47;5012893;28;20159;-85
2023/06/27 03:35:20;;;;;;;15.52;7.78;;;;;;;17.68;98.16;94731.34;5012961;28;20145;-85
2023/06/27 03:37:46;;;;;;;15.13;9.15;;;;;;;17.75;98.44;94717.78;5012758;28;20165;-85
2023/06/27 03:40:11;;;;;;;8.70;5.63;;;;;;;17.77;98.51;94707.69;5012727;28;20526;-85
2023/06/27 03:42:37;;;;;;;8.13;6.05;;;;;;;17.78;98.02;94686.13;5012864;28;20172;-85
2023/06/27 03:45:03;;;;;;;11.98;6.50;;;;;;;17.92;97.16;94702.41;5027838;28;20196;-85
2023/06/27 03:47:29;;;;;;;13.43;6.57;;;;;;;18.25;97.03;94738.53;5012454;28;20326;-85
2023/06/27 03:49:54;;;;;;;10.52;6.30;;;;;;;18.45;97.11;94746.59;5012048;28;20637;-85
2023/06/27 03:52:20;;;;;;;10.52;4.97;;;;;;;18.23;97.07;94698.84;5012334;28;20188;-85
2023/06/27 03:54:45;;;;;;;11.15;5.75;;;;;;;18.41;96.61;94702.88;5012210;28;20176;-85
2023/06/27 03:57:10;;;;;;;10.70;6.35;;;;;;;18.57;96.46;94719.72;5011085;28;20227;-85
2023/06/27 03:59:36;;;;;;;8.63;6.07;;;;;;;18.60;96.38;94696.00;5011259;28;20177;-84
2023/06/27 04:02:01;;;;;;;11.43;5.40;;;;;;;18.89;95.41;94722.19;5013065;28;20160;-85
2023/06/27 04:04:26;;;;;;;8.35;6.25;;;;;;;19.23;94.70;94753.41;5012404;28;20164;-85
2023/06/27 04:06:52;;;;;;;8.57;5.95;;;;;;;19.09;94.50;94709.66;5012559;28;21111;-85
2023/06/27 04:09:17;;;;;;;9.23;6.80;;;;;;;19.31;94.63;94732.59;5012654;28;20626;-85
2023/06/27 04:11:43;;;;;;;9.73;6.50;;;;;;;19.66;93.60;94775.31;5010929;28;20550;-85
2023/06/27 04:14:08;;;;;;;12.32;6.07;;;;;;;19.66;92.22;94753.13;5027488;28;20180;-86
2023/06/27 04:16:33;;;;;;;11.07;6.32;;;;;;;19.57;89.67;94728.84;5027428;28;20169;-86
2023/06/27 04:18:59;;;;;;;10.63;5.88;;;;;;;19.61;90.05;94721.91;5012503;28;20645;-86
2023/06/27 04:21:25;;;;;;;14.15;8.85;;;;;;;20.03;90.38;94764.28;5010814;28;20238;-85
2023/06/27 04:23:54;;;;;;;18.55;7.32;;;;;;;19.97;89.90;94730.66;5012344;28;20251;-85
2023/06/27 04:26:19;;;;;;;13.30;6.55;;;;;;;20.33;88.93;94782.88;5012154;28;20215;-83
2023/06/27 04:28:47;;;;;;;9.40;5.38;;;;;;;20.45;87.44;94792.50;5012323;28;20164;-84
2023/06/27 04:31:12;;;;;;;9.13;6.10;;;;;;;20.62;88.50;94783.06;5011556;28;20176;-84
2023/06/27 04:33:39;;;;;;;11.90;6.22;;;;;;;20.72;85.68;94792.94;5011470;28;20552;-83
2023/06/27 04:36:05;;;;;;;9.82;6.10;;;;;;;20.55;85.66;94744.31;5011516;28;20172;-83
2023/06/27 04:38:37;;;;;;;7.47;5.00;;;;;;;20.96;85.66;94793.84;5011652;28;20666;-83
2023/06/27 04:41:09;;;;;;;7.05;4.75;;;;;;;21.07;84.75;94789.25;5012204;28;20267;-83
2023/06/27 04:43:35;;;;;;;13.85;6.20;;;;;;;21.04;83.88;94768.38;5012029;28;20168;-83
2023/06/27 04:46:01;;;;;;;10.27;5.80;;;;;;;21.22;85.84;94772.31;5011867;28;20665;-83
2023/06/27 04:48:28;;;;;;;7.68;4.82;;;;;;;21.59;83.43;94799.34;5014056;28;20644;-83
2023/06/27 04:50:55;;;;;;;9.57;4.78;;;;;;;21.63;82.82;94778.13;5013238;28;20172;-83
2023/06/27 04:53:21;;;;;;;8.70;5.45;;;;;;;21.69;82.13;94758.25;5013019;28;20183;-83
2023/06/27 04:55:48;;;;;;;6.93;4.60;;;;;;;22.06;82.34;94790.59;5013880;28;20172;-83
2023/06/27 04:58:13;;;;;;;7.97;4.63;;;;;;;22.19;79.48;94776.53;5015082;28;20216;-83
2023/06/27 05:00:39;;;;;;;12.00;4.55;;;;;;;22.58;78.45;94802.38;5015593;28;20176;-83
2023/06/27 05:03:04;;;;;;;11.07;5.82;;;;;;;22.90;77.64;94812.47;5016169;28;20153;-83
2023/06/27 05:05:34;;;;;;;6.95;5.05;;;;;;;22.80;75.72;94767.78;5015522;28;20184;-83
2023/06/27 05:08:03;;;;;;;6.97;4.20;;;;;;;23.40;77.08;94810.16;5015838;28;20176;-83
2023/06/27 05:10:30;;;;;;;9.57;4.88;;;;;;;23.61;76.88;94798.81;5015761;28;20161;-83
2023/06/27 05:12:57;;;;;;;6.72;4.60;;;;;;;23.73;74.31;94781.44;5015923;28;20244;-83
2023/06/27 05:15:22;;;;;;;7.97;5.22;;;;;;;23.94;70.50;94771.94;5015913;28;20685;-83
2023/06/27 05:17:52;;;;;;;8.02;5.13;;;;;;;24.59;72.28;94815.66;5015386;28;20179;-83
2023/06/27 05:20:18;;;;;;;6.20;5.05;;;;;;;24.90;68.04;94823.91;5015434;28;20645;-83
2023/06/27 05:22:44;;;;;;;9.45;5.43;;;;;;;25.06;66.59;94782.09;5015357;28;20177;-83
2023/06/27 05:25:09;;;;;;;8.25;5.80;;;;;;;25.51;66.19;94799.09;5013278;28;20200;-83
2023/06/27 05:27:35;;;;;;;12.57;6.45;;;;;;;25.93;65.06;94794.38;5013357;28;20267;-87
2023/06/27 05:30:00;;;;;;;9.00;5.15;;;;;;;26.17;64.52;94783.22;5013648;28;20248;-82
2023/06/27 05:32:25;;;;;;;8.50;5.63;;;;;;;26.55;63.59;94794.38;5012564;28;20741;-84
2023/06/27 05:34:51;;;;;;;6.47;4.75;;;;;;;27.05;61.99;94821.88;5013876;28;20184;-81
2023/06/27 05:37:16;;;;;;;9.40;5.32;;;;;;;27.08;59.36;94775.25;5014474;28;20615;-82
2023/06/27 05:39:42;;;;;;;6.97;5.05;;;;;;;27.07;59.57;94764.78;5014547;28;20169;-83
2023/06/27 05:42:08;;;;;;;8.02;5.22;;;;;;;27.64;60.31;94814.94;5014530;28;20658;-81
2023/06/27 05:44:33;;;;;;;6.88;4.75;;;;;;;27.87;57.91;94817.44;5014897;28;20171;-81
2023/06/27 05:46:58;;;;;;;6.78;5.32;;;;;;;28.12;59.04;94813.91;5014396;28;20261;-80
2023/06/27 05:49:24;;;;;;;11.30;7.03;;;;;;;28.29;57.85;94802.25;5014800;28;20172;-81
2023/06/27 05:51:49;;;;;;;8.80;5.68;;;;;;;28.50;58.19;94811.25;5014817;28;20161;-80
2023/06/27 05:54:14;;;;;;;9.52;5.20;;;;;;;28.60;55.78;94810.91;5014746;28;20181;-80
2023/06/27 05:56:40;;;;;;;7.60;4.90;;;;;;;28.81;56.67;94810.97;5014768;28;20160;-80
2023/06/27 05:59:05;;;;;;;10.65;5.45;;;;;;;28.87;55.90;94817.81;5013809;28;20212;-80
2023/06/27 06:01:31;;;;;;;8.07;5.15;;;;;;;28.68;55.63;94810.06;5013432;28;20611;-80
2023/06/27 06:03:56;;;;;;;7.80;5.35;;;;;;;28.71;59.20;94812.16;5013872;28;20215;-80
2023/06/27 06:06:21;;;;;;;11.35;5.57;;;;;;;28.67;59.10;94810.41;5013998;28;20275;-80
2023/06/27 06:08:47;;;;;;;15.05;5.68;;;;;;;28.69;58.56;94811.66;5014027;28;20275;-81
2023/06/27 06:11:12;;;;;;;10.75;5.45;;;;;;;28.58;56.79;94793.38;5013854;28;20630;-81
2023/06/27 06:13:38;;;;;;;8.85;4.95;;;;;;;28.67;58.05;94794.94;5014015;28;20234;-80
2023/06/27 06:16:03;;;;;;;10.07;5.28;;;;;;;28.57;58.18;94800.72;5014779;28;20169;-82
2023/06/27 06:18:29;;;;;;;16.38;5.07;;;;;;;28.51;57.06;94780.34;5014571;28;20160;-83
2023/06/27 06:20:55;;;;;;;9.25;5.30;;;;;;;28.25;58.66;94752.56;5014254;28;20662;-84
2023/06/27 06:23:20;;;;;;;10.57;5.85;;;;;;;28.55;59.56;94800.25;5014198;28;20239;-83
2023/06/27 06:25:45;;;;;;;8.20;5.15;;;;;;;28.36;59.28;94775.47;5013919;28;20235;-83
2023/06/27 06:28:11;;;;;;;10.60;5.03;;;;;;;28.48;57.55;94789.13;5014023;28;20214;-84
2023/06/27 06:30:36;;;;;;;11.68;6.63;;;;;;;28.54;56.78;94768.88;5014502;28;20191;-84
2023/06/27 06:33:02;;;;;;;7.97;5.18;;;;;;;28.74;56.38;94808.75;5013852;28;20184;-84
2023/06/27 06:35:27;;;;;;;6.63;4.75;;;;;;;28.66;55.71;94803.38;5014530;28;20326;-84
2023/06/27 06:37:53;;;;;;;7.60;4.90;;;;;;;28.70;55.89;94802.41;5013816;28;20167;-84
2023/06/27 06:40:18;;;;;;;10.68;4.82;;;;;;;28.61;55.76;94763.72;5013765;28;20183;-85
2023/06/27 06:42:44;;;;;;;10.48;5.32;;;;;;;28.95;55.83;94794.50;5013755;28;20172;-84
2023/06/27 06:45:09;;;;;;;8.57;4.75;;;;;;;29.07;55.42;94798.06;5013317;28;20198;-84
2023/06/27 06:47:35;;;;;;;7.50;4.60;;;;;;;29.26;55.20;94800.34;5013331;28;20188;-84
2023/06/27 06:50:01;;;;;;;10.35;5.20;;;;;;;29.03;54.85;94740.22;5012146;28;20676;-84
2023/06/27 06:52:26;;;;;;;8.45;5.00;;;;;;;29.09;53.64;94752.44;5013834;28;20199;-84
2023/06/27 06:54:51;;;;;;;9.57;4.82;;;;;;;28.97;53.92;94744.25;5013589;28;20218;-84
2023/06/27 06:57:17;;;;;;;5.82;4.43;;;;;;;29.00;54.54;94761.75;5012042;28;20168;-84
2023/06/27 06:59:42;;;;;;;9.43;4.50;;;;;;;28.86;57.85;94734.91;5013496;28;20165;-84
2023/06/27 07:02:07;;;;;;;6.88;4.25;;;;;;;29.11;56.58;94741.28;5013601;28;20247;-84
2023/06/27 07:04:33;;;;;;;7.60;4.32;;;;;;;29.60;55.66;94791.97;5013439;28;20165;-84
2023/06/27 07:07:00;;;;;;;7.80;5.07;;;;;;;29.57;54.53;94768.22;5013555;28;20196;-84
2023/06/27 07:09:25;;;;;;;5.40;4.13;;;;;;;29.57;55.83;94754.66;5012254;28;20188;-84
2023/06/27 07:11:51;;;;;;;8.63;5.25;;;;;;;30.07;54.01;94791.72;5013011;28;20169;-84
2023/06/27 07:14:19;;;;;;;6.85;4.68;;;;;;;29.98;51.95;94772.81;5013107;28;20649;-85
2023/06/27 07:16:57;;;;;;;13.68;5.43;;;;;;;29.79;52.34;94731.75;5011842;28;20169;-85
2023/06/27 07:19:22;;;;;;;7.65;4.80;;;;;;;29.99;55.71;94760.81;5013175;28;20617;-85
2023/06/27 07:21:47;;;;;;;5.25;4.43;;;;;;;30.01;53.55;94757.78;5013127;28;20223;-91
2023/06/27 07:24:13;;;;;;;5.05;4.50;;;;;;;30.29;51.91;94793.22;5012004;28;20180;-91
2023/06/27 07:26:38;;;;;;;9.35;4.85;;;;;;;30.14;51.95;94758.56;5013315;28;20267;-91
2023/06/27 07:29:04;;;;;;;11.90;5.60;;;;;;;30.38;54.81;94792.00;5028307;28;20733;-88
2023/06/27 07:31:29;;;;;;;11.65;5.80;;;;;;;30.12;51.31;94749.97;5013355;28;20223;-90
2023/06/27 07:33:55;;;;;;;8.18;4.85;;;;;;;30.30;55.94;94760.28;5013029;28;20210;-90
2023/06/27 07:36:20;;;;;;;7.60;4.93;;;;;;;30.51;52.94;94789.31;5011371;28;20208;-90
2023/06/27 07:38:46;;;;;;;7.72;4.95;;;;;;;30.08;49.33;94743.63;5012709;28;20168;-91
2023/06/27 07:41:11;;;;;;;8.07;4.30;;;;;;;30.27;51.91;94793.56;5011164;28;20187;-88
2023/06/27 07:43:37;;;;;;;5.75;4.45;;;;;;;30.47;52.48;94791.09;5012648;28;20173;-84
2023/06/27 07:46:02;;;;;;;13.43;5.90;;;;;;;30.27;52.32;94779.22;5012844;28;20275;-90
2023/06/27 07:48:27;;;;;;;8.98;4.93;;;;;;;30.16;51.32;94738.09;5011592;28;20271;-91
2023/06/27 07:50:53;;;;;;;6.47;5.13;;;;;;;30.50;49.55;94747.75;5013026;28;20168;-91
2023/06/27 07:53:18;;;;;;;5.25;4.20;;;;;;;30.53;51.32;94749.81;5011478;28;20652;-86
2023/06/27 07:55:44;;;;;;;7.50;5.75;;;;;;;30.65;49.96;94759.91;5012590;28;20638;-87
2023/06/27 07:58:09;;;;;;;8.07;5.15;;;;;;;30.52;49.82;94739.28;5011115;28;20232;-87
2023/06/27 08:00:35;;;;;;;5.20;4.53;;;;;;;30.66;48.12;94767.72;5012922;28;20161;-86
2023/06/27 08:03:00;;;;;;;8.32;5.53;;;;;;;30.77;48.27;94776.22;5012451;28;20638;-86
2023/06/27 08:05:28;;;;;;;5.50;4.38;;;;;;;30.64;51.30;94729.19;5012712;28;20279;-86
2023/06/27 08:07:53;;;;;;;7.30;4.60;;;;;;;30.87;49.29;94751.28;5012279;28;20172;-87
2023/06/27 08:10:19;;;;;;;6.20;4.35;;;;;;;30.83;47.76;94734.06;5012682;28;20169;-86
2023/06/27 08:12:44;;;;;;;5.85;4.00;;;;;;;31.10;48.14;94793.22;5011036;28;20722;-86
2023/06/27 08:15:10;;;;;;;6.43;4.22;;;;;;;30.92;51.04;94756.47;5011015;28;20187;-86
2023/06/27 08:17:35;;;;;;;7.65;4.05;;;;;;;30.87;47.63;94740.41;5012591;28;20226;-86
2023/06/27 08:20:01;;;;;;;5.78;4.40;;;;;;;30.89;46.97;94743.56;5012308;28;20168;-85
2023/06/27 08:22:26;;;;;;;9.23;4.82;;;;;;;31.15;48.23;94766.88;5011610;28;20630;-85
2023/06/27 08:24:51;;;;;;;30.25;5.90;;;;;;;30.98;48.72;94740.72;5012443;28;20326;-88
2023/06/27 08:27:17;;;;;;;5.60;4.07;;;;;;;31.34;51.06;94797.00;5011089;28;20185;-89
2023/06/27 08:29:42;;;;;;;45.75;6.32;;;;;;;31.02;50.42;94753.28;5011020;28;20726;-85
2023/06/27 08:32:08;;;;;;;24.83;5.32;;;;;;;30.98;51.59;94755.09;5012180;28;20643;-85
2023/06/27 08:34:38;;;;;;;5.45;3.67;;;;;;;30.90;48.34;94744.34;5012173;28;20165;-85
2023/06/27 08:37:04;;;;;;;64.50;8.18;;;;;;;30.86;48.15;94787.78;5012244;28;20183;-84
2023/06/27 08:39:29;;;;;;;17.80;6.97;;;;;;;30.68;51.69;94756.50;5012347;28;20160;-83
2023/06/27 08:41:56;;;;;;;63.95;9.32;;;;;;;30.51;54.11;94743.94;5012146;28;20195;-84
2023/06/27 08:44:22;;;;;;;10.35;4.88;;;;;;;30.43;48.76;94763.84;5012113;28;20159;-83
2023/06/27 08:46:50;;;;;;;14.27;4.35;;;;;;;30.40;49.64;94775.38;5011221;28;20195;-85
2023/06/27 08:49:23;;;;;;;22.98;4.88;;;;;;;30.07;45.69;94747.47;5011568;28;20267;-87
2023/06/27 08:51:52;;;;;;;10.07;4.30;;;;;;;29.52;50.33;94732.34;5012019;28;20161;-84
2023/06/27 08:54:34;;;;;;;7.30;4.05;;;;;;;29.72;52.48;94766.00;5027052;28;20571;-84
2023/06/27 08:57:01;;;;;;;4.32;3.28;;;;;;;29.52;52.13;94719.56;5010179;28;20553;-87
2023/06/27 08:59:31;;;;;;;4.78;3.42;;;;;;;29.92;49.13;94770.63;5011340;28;20232;-86
2023/06/27 09:01:59;;;;;;;5.07;3.65;;;;;;;29.75;46.89;94727.34;5008585;28;20177;-84
2023/06/27 09:04:24;;;;;;;5.72;3.20;;;;;;;29.68;47.35;94760.44;5011726;28;20179;-84
2023/06/27 09:06:50;;;;;;;18.73;5.50;;;;;;;29.16;49.91;94706.59;5010425;28;20200;-81
2023/06/27 09:09:16;;;;;;;8.85;3.10;;;;;;;29.59;51.45;94765.16;5011681;28;20191;-81
2023/06/27 09:11:43;;;;;;;6.47;3.42;;;;;;;29.58;49.87;94739.13;5010151;28;20189;-82
2023/06/27 09:14:08;;;;;;;41.35;5.88;;;;;;;29.54;45.79;94739.03;5011354;28;20646;-82
2023/06/27 09:16:34;;;;;;;232.65;18.42;;;;;;;29.05;46.83;94731.75;5011514;28;20263;-83
2023/06/27 09:19:00;;;;;;;5.18;3.00;;;;;;;28.61;47.86;94743.97;5011785;28;20312;-83
2023/06/27 09:21:26;;;;;;;5.93;3.40;;;;;;;28.69;52.66;94745.84;5010780;28;20239;-83
2023/06/27 09:23:53;;;;;;;15.70;4.97;;;;;;;28.74;53.29;94718.53;5011901;28;20183;-83
2023/06/27 09:26:18;;;;;;;6.25;4.03;;;;;;;29.13;50.96;94747.16;5011624;28;20210;-82
2023/06/27 09:28:48;;;;;;;11.25;4.22;;;;;;;29.38;53.22;94761.69;5009858;28;20180;-82
2023/06/27 09:31:17;;;;;;;8.40;3.83;;;;;;;29.55;52.53;94756.91;5008975;28;20189;-82
2023/06/27 09:33:44;;;;;;;10.05;4.75;;;;;;;29.55;51.05;94762.34;5009084;28;20184;-82
2023/06/27 09:36:11;;;;;;;4.30;3.50;;;;;;;29.60;51.79;94764.81;5010872;28;20180;-82
2023/06/27 09:38:37;;;;;;;4.20;3.55;;;;;;;29.36;48.43;94731.38;5010384;28;20180;-82
2023/06/27 09:41:03;;;;;;;12.18;3.47;;;;;;;29.60;48.81;94764.81;5010574;28;20227;-83
2023/06/27 09:43:32;;;;;;;3.95;3.22;;;;;;;29.51;45.09;94755.97;5010450;28;20242;-82
2023/06/27 09:45:59;;;;;;;4.88;3.10;;;;;;;29.44;47.09;94761.16;5010323;28;20275;-82
2023/06/27 09:48:24;;;;;;;4.60;3.40;;;;;;;29.39;49.32;94755.13;5010380;28;20184;-82
2023/06/27 09:50:57;;;;;;;6.13;3.28;;;;;;;29.26;48.62;94755.03;5011323;28;20215;-83
2023/06/27 09:53:23;;;;;;;5.28;3.35;;;;;;;29.27;50.42;94756.63;5012637;28;20176;-82
2023/06/27 09:55:48;;;;;;;5.82;3.78;;;;;;;29.33;51.72;94759.13;5011949;28;20188;-82
2023/06/27 09:58:24;;;;;;;8.60;3.85;;;;;;;29.16;54.73;94749.19;5012028;28;20290;-82
2023/06/27 10:00:50;;;;;;;7.95;3.30;;;;;;;29.06;53.52;94749.63;5013453;28;20190;-83
2023/06/27 10:03:19;;;;;;;5.68;3.40;;;;;;;28.83;52.07;94724.72;5014421;28;20169;-81
2023/06/27 10:05:45;;;;;;;4.55;3.45;;;;;;;28.85;52.19;94733.31;5012727;28;20204;-81
2023/06/27 10:08:11;;;;;;;10.38;3.78;;;;;;;28.79;55.97;94721.09;5014122;28;20622;-86
2023/06/27 10:10:39;;;;;;;6.18;3.60;;;;;;;28.87;51.71;94737.31;5029222;28;20184;-86
2023/06/27 10:13:05;;;;;;;6.93;3.38;;;;;;;28.84;50.53;94740.66;5014718;28;20234;-86
2023/06/27 10:15:31;;;;;;;7.63;3.33;;;;;;;28.78;54.85;94716.78;5013104;28;20648;-84
2023/06/27 10:17:56;;;;;;;5.15;3.30;;;;;;;28.90;47.67;94755.59;5014424;28;20681;-82
2023/06/27 10:20:23;;;;;;;5.57;3.50;;;;;;;28.65;51.99;94725.91;5014200;28;20176;-83
2023/06/27 10:22:50;;;;;;;5.90;3.40;;;;;;;28.82;48.85;94752.94;5013799;28;20271;-84
2023/06/27 10:25:17;;;;;;;19.25;4.60;;;;;;;28.75;51.28;94747.22;5013487;28;20168;-81
2023/06/27 10:27:43;;;;;;;21.05;4.07;;;;;;;28.54;53.62;94720.88;5011106;28;20184;-82
2023/06/27 10:30:18;;;;;;;36.13;5.03;;;;;;;28.76;55.08;94751.53;5010487;28;20199;-82
2023/06/27 10:32:43;;;;;;;41.58;6.28;;;;;;;28.65;43.16;94728.63;5010787;28;20202;-82
2023/06/27 10:35:24;;;;;;;37.20;5.00;;;;;;;28.52;47.26;94736.69;5013596;28;20701;-82
2023/06/27 10:38:09;;;;;;;30.90;4.68;;;;;;;28.26;46.36;94740.63;5011005;28;20212;-82
2023/06/27 10:41:13;;;;;;;3.60;3.30;;;;;;;28.24;48.10;94734.72;5009701;28;20666;-82
2023/06/27 10:43:39;;;;;;;12.60;3.88;;;;;;;28.09;46.18;94711.69;4999609;28;20192;-82
2023/06/27 10:46:23;;;;;;;8.55;3.42;;;;;;;28.24;48.37;94735.53;5009641;28;20196;-82
2023/06/27 10:48:50;;;;;;;3.65;3.00;;;;;;;28.32;50.20;94728.47;5010391;28;20181;-82
2023/06/27 10:51:21;;;;;;;4.68;2.75;;;;;;;28.35;47.24;94730.56;5009262;28;20186;-82
2023/06/27 10:54:08;;;;;;;5.55;3.25;;;;;;;28.34;46.88;94723.53;5010866;28;20255;-81
2023/06/27 10:56:41;;;;;;;3.78;3.00;;;;;;;28.32;46.08;94731.19;5010811;28;20562;-82
2023/06/27 10:59:18;;;;;;;8.43;3.53;;;;;;;28.33;50.71;94730.88;5007715;28;20246;-82
2023/06/27 11:01:49;;;;;;;6.20;3.63;;;;;;;28.38;47.14;94721.75;5010980;28;20172;-82
2023/06/27 11:04:16;;;;;;;9.70;3.72;;;;;;;28.27;46.63;94696.19;5010817;28;20641;-82
2023/06/27 11:06:42;;;;;;;11.25;3.28;;;;;;;28.40;48.02;94712.19;5010653;28;20286;-82
2023/06/27 11:09:13;;;;;;;5.95;3.53;;;;;;;28.06;49.28;94674.41;5010744;28;20184;-82
2023/06/27 11:11:39;;;;;;;10.52;3.85;;;;;;;28.41;50.90;94719.19;5012174;28;20209;-82
2023/06/27 11:14:06;;;;;;;17.92;4.82;;;;;;;28.38;49.02;94702.78;5012525;28;20172;-83
2023/06/27 11:16:35;;;;;;;5.13;3.60;;;;;;;28.47;46.76;94709.75;5011655;28;20318;-81
2023/06/27 11:19:02;;;;;;;106.82;9.82;;;;;;;28.31;47.19;94689.78;5012795;28;20183;-82
2023/06/27 11:21:28;;;;;;;6.32;3.63;;;;;;;28.30;46.49;94681.97;5012687;28;20247;-83
2023/06/27 11:24:00;;;;;;;8.90;3.35;;;;;;;28.47;49.36;94707.06;5012461;28;20191;-82
2023/06/27 11:26:27;;;;;;;13.15;4.70;;;;;;;28.54;49.28;94701.91;5008517;28;20216;-84
2023/06/27 11:28:52;;;;;;;3.75;3.00;;;;;;;28.14;44.78;94685.19;5012956;28;20175;-85
2023/06/27 11:31:19;;;;;;;3.10;2.80;;;;;;;28.20;46.86;94690.47;5012887;28;20622;-86